Time;durP1;ratioP1;P1;durP2;ratioP2;P2;SDS_P1;SDS_P2;PMS_P1;PMS_P2;Temp;Humidity;BMP_temperature;BMP_pressure;BME280_temperature;BME280_humidity;BME280_pressure;Samples;Min_cycle;Max_cycle;Signal;HPM_P1;HPM_P2
2023/11/01 00:02:06;;;;;;;23.55;13.60;;;;;;;19.10;54.17;99188.00;5113209;28;20452;-40
2023/11/01 00:04:32;;;;;;;26.92;13.35;;;;;;;19.11;54.41;99201.22;5113420;28;20029;-39
2023/11/01 00:06:58;;;;;;;27.90;13.10;;;;;;;19.07;54.09;99202.81;5113179;28;20331;-39
2023/11/01 00:09:24;;;;;;;30.90;13.40;;;;;;;19.02;54.70;99204.72;5113254;28;20062;-40
2023/11/01 00:11:49;;;;;;;26.88;12.77;;;;;;;19.00;54.62;99201.47;5112867;28;20043;-39
2023/11/01 00:14:15;;;;;;;23.77;13.10;;;;;;;19.06;54.41;99217.38;5113322;28;20034;-39
2023/11/01 00:16:40;;;;;;;24.70;12.85;;;;;;;19.08;54.65;99228.72;5113397;28;20024;-39
2023/11/01 00:19:06;;;;;;;21.73;13.02;;;;;;;18.85;54.73;99226.56;5112223;28;20016;-38
2023/11/01 00:21:31;;;;;;;25.65;12.98;;;;;;;18.78;55.48;99218.72;5112995;28;20035;-41
2023/11/01 00:23:57;;;;;;;28.75;13.38;;;;;;;18.86;55.41;99218.22;5113160;28;20035;-42
2023/11/01 00:26:23;;;;;;;28.30;13.80;;;;;;;18.83;55.85;99218.75;5112735;28;20015;-39
2023/11/01 00:28:48;;;;;;;28.95;12.88;;;;;;;18.81;55.61;99228.19;5112988;28;20399;-39
2023/11/01 00:31:14;;;;;;;27.15;13.02;;;;;;;18.92;55.42;99227.94;5112856;27;20130;-39
2023/11/01 00:33:39;;;;;;;35.20;13.80;;;;;;;18.92;55.54;99224.41;5112632;28;20112;-39
2023/11/01 00:36:05;;;;;;;26.75;13.63;;;;;;;18.74;55.68;99212.28;5112878;28;20031;-40
2023/11/01 00:38:35;;;;;;;25.38;12.27;;;;;;;18.78;55.29;99216.03;5112644;28;20388;-40
2023/11/01 00:41:04;;;;;;;24.23;12.52;;;;;;;18.80;56.04;99205.00;5112852;28;20034;-39
2023/11/01 00:43:30;;;;;;;22.40;11.77;;;;;;;18.69;55.49;99196.09;5112285;28;20040;-39
2023/11/01 00:45:55;;;;;;;21.77;11.93;;;;;;;18.58;55.60;99189.09;5112797;28;20076;-39
2023/11/01 00:48:21;;;;;;;22.63;11.60;;;;;;;18.66;55.41;99181.28;5112930;28;20028;-40
2023/11/01 00:50:46;;;;;;;27.75;11.93;;;;;;;18.47;56.05;99183.69;5112608;28;20110;-38
2023/11/01 00:53:12;;;;;;;21.92;11.30;;;;;;;18.66;56.01;99194.75;5112086;28;20035;-37
2023/11/01 00:55:37;;;;;;;23.80;11.10;;;;;;;18.74;55.87;99201.50;5112582;28;20038;-40
2023/11/01 00:58:03;;;;;;;20.63;11.32;;;;;;;18.61;56.57;99173.19;5112154;28;20027;-40
2023/11/01 01:00:28;;;;;;;20.20;10.05;;;;;;;18.62;56.02;99166.72;5112113;28;20122;-39
2023/11/01 01:02:54;;;;;;;23.95;10.80;;;;;;;18.69;55.49;99169.94;5112733;28;20038;-39
2023/11/01 01:05:20;;;;;;;20.33;10.95;;;;;;;18.76;55.35;99183.94;5112161;28;20084;-42
2023/11/01 01:07:46;;;;;;;20.65;10.15;;;;;;;18.76;55.48;99186.66;5112245;28;20127;-42
2023/11/01 01:10:11;;;;;;;21.17;10.13;;;;;;;18.65;55.52;99193.13;5112088;27;20032;-37
2023/11/01 01:12:37;;;;;;;26.38;10.68;;;;;;;18.65;54.97;99187.72;5117404;27;20022;-39
2023/11/01 01:15:03;;;;;;;21.88;9.45;;;;;;;18.53;55.22;99198.78;5111638;28;20111;-39
2023/11/01 01:17:28;;;;;;;20.63;10.38;;;;;;;18.57;55.38;99196.38;5112027;28;20046;-40
2023/11/01 01:19:54;;;;;;;18.92;9.00;;;;;;;18.53;55.14;99195.28;5112205;28;20416;-39
2023/11/01 01:22:21;;;;;;;17.95;9.07;;;;;;;18.62;54.96;99184.75;5112229;28;20532;-39
2023/11/01 01:24:47;;;;;;;14.82;8.55;;;;;;;18.62;54.41;99184.75;5111651;28;20024;-39
2023/11/01 01:27:12;;;;;;;17.48;7.90;;;;;;;18.46;54.44;99179.38;5111403;28;20091;-40
2023/11/01 01:29:38;;;;;;;18.52;7.90;;;;;;;18.26;54.54;99169.41;5111685;28;20110;-40
2023/11/01 01:32:04;;;;;;;14.52;7.75;;;;;;;18.20;55.33;99173.19;5111642;28;20138;-39
2023/11/01 01:34:29;;;;;;;16.95;7.32;;;;;;;17.90;55.32;99169.34;5111625;28;20124;-39
2023/11/01 01:36:54;;;;;;;13.52;6.45;;;;;;;17.63;56.21;99172.22;5111293;28;20034;-39
2023/11/01 01:39:20;;;;;;;13.25;7.10;;;;;;;17.65;56.27;99167.38;5111559;28;20027;-39
2023/11/01 01:41:45;;;;;;;15.27;6.78;;;;;;;17.87;56.42;99169.88;5111548;28;20620;-39
2023/11/01 01:44:11;;;;;;;12.25;6.75;;;;;;;18.14;55.47;99171.53;5111728;28;20020;-39
2023/11/01 01:46:37;;;;;;;12.32;6.82;;;;;;;17.94;55.35;99165.06;5111459;28;20531;-36
2023/11/01 01:49:02;;;;;;;14.43;6.88;;;;;;;18.15;55.06;99163.19;5111276;28;20552;-40
2023/11/01 01:51:28;;;;;;;18.40;6.55;;;;;;;18.30;54.74;99175.09;5111533;28;20034;-39
2023/11/01 01:53:54;;;;;;;13.85;6.70;;;;;;;18.46;54.18;99182.06;5111486;28;20023;-40
2023/11/01 01:56:21;;;;;;;10.45;6.38;;;;;;;18.76;52.70;99172.38;5111026;28;20104;-40
2023/11/01 01:58:47;;;;;;;13.82;6.63;;;;;;;18.42;53.56;99191.78;5111005;28;20032;-39
2023/11/01 02:01:13;;;;;;;18.20;6.85;;;;;;;18.02;54.72;99206.00;5110970;28;20027;-39
2023/11/01 02:03:39;;;;;;;10.15;6.55;;;;;;;17.68;55.71;99214.44;5111234;28;20024;-38
2023/11/01 02:06:06;;;;;;;12.35;6.47;;;;;;;17.46;56.16;99220.81;5111321;28;20081;-40
2023/11/01 02:08:32;;;;;;;16.52;6.35;;;;;;;17.31;56.70;99220.75;5110903;28;20066;-39
2023/11/01 02:10:58;;;;;;;17.05;6.72;;;;;;;17.41;56.27;99219.97;5111125;28;20051;-39
2023/11/01 02:13:24;;;;;;;15.55;6.72;;;;;;;17.62;55.56;99212.81;5110936;28;20045;-40
2023/11/01 02:15:49;;;;;;;13.43;6.82;;;;;;;17.84;55.04;99218.88;5110534;28;20526;-39
2023/11/01 02:18:15;;;;;;;17.27;6.57;;;;;;;17.85;55.60;99217.78;5111087;28;20031;-39
2023/11/01 02:20:44;;;;;;;12.77;6.53;;;;;;;18.12;54.94;99225.66;5110789;28;20038;-40
2023/11/01 02:23:10;;;;;;;;;;;;;;;18.49;54.44;99232.72;5111566;28;20031;-40
2023/11/01 02:25:36;;;;;;;13.40;6.18;;;;;;;18.40;53.96;99228.94;5111301;28;19911;-40
2023/11/01 02:28:07;;;;;;;13.90;6.10;;;;;;;18.43;54.19;99239.19;5110952;28;20047;-38
2023/11/01 02:30:33;;;;;;;12.88;6.63;;;;;;;17.91;54.67;99249.00;5110849;28;20028;-40
2023/11/01 02:32:58;;;;;;;11.68;6.60;;;;;;;18.11;54.41;99258.25;5111019;28;20035;-40
2023/11/01 02:35:24;;;;;;;15.95;7.05;;;;;;;18.20;54.12;99270.13;5110761;28;20042;-41
2023/11/01 02:37:49;;;;;;;15.90;7.00;;;;;;;18.29;53.78;99273.91;5110761;28;20069;-39
2023/11/01 02:40:16;;;;;;;15.38;6.60;;;;;;;18.12;53.80;99276.81;5110847;28;20111;-40
2023/11/01 02:42:43;;;;;;;17.83;6.53;;;;;;;18.15;53.39;99278.19;5114229;28;20030;-39
2023/11/01 02:45:10;;;;;;;13.50;6.13;;;;;;;18.11;53.44;99271.72;5114951;28;20019;-40
2023/11/01 02:47:39;;;;;;;14.38;6.57;;;;;;;17.95;53.84;99271.66;5114946;27;20027;-40
2023/11/01 02:50:06;;;;;;;13.85;6.15;;;;;;;17.63;56.24;99271.75;5114844;28;20403;-40
2023/11/01 02:52:32;;;;;;;11.52;6.13;;;;;;;17.68;55.09;99274.44;5123342;27;20103;-40
2023/11/01 02:55:01;;;;;;;16.25;6.20;;;;;;;17.92;54.51;99277.56;5125166;27;20035;-42
2023/11/01 02:57:26;;;;;;;12.93;6.25;;;;;;;17.91;54.38;99258.97;5118472;27;20020;-39
2023/11/01 02:59:52;;;;;;;13.32;6.50;;;;;;;18.05;54.48;99254.72;5123208;27;20141;-38
2023/11/01 03:02:17;;;;;;;16.25;5.97;;;;;;;18.24;53.89;99259.59;5123757;27;20031;-41
2023/11/01 03:04:42;;;;;;;12.80;6.28;;;;;;;18.24;53.69;99265.00;5125703;27;20014;-40
2023/11/01 03:07:08;;;;;;;14.70;6.18;;;;;;;18.23;53.87;99268.78;5134777;27;20058;-38
2023/11/01 03:09:33;;;;;;;13.15;6.28;;;;;;;18.34;53.65;99279.31;5134855;27;20410;-40
2023/11/01 03:11:58;;;;;;;11.73;6.30;;;;;;;18.38;53.51;99258.03;5133839;27;20030;-40
2023/11/01 03:14:24;;;;;;;14.00;6.57;;;;;;;18.21;54.15;99268.22;5134863;27;20019;-40
2023/11/01 03:16:49;;;;;;;14.30;6.25;;;;;;;17.98;54.46;99264.94;5134905;27;20023;-40
2023/11/01 03:19:14;;;;;;;15.77;6.15;;;;;;;18.03;54.44;99254.19;5134796;27;20566;-39
2023/11/01 03:21:41;;;;;;;14.05;6.57;;;;;;;17.84;54.94;99239.53;5134873;27;20023;-40
2023/11/01 03:24:07;;;;;;;11.20;5.90;;;;;;;18.02;54.67;99262.53;5134970;27;20391;-40
2023/11/01 03:26:32;;;;;;;12.07;6.72;;;;;;;18.08;54.44;99261.47;5134674;27;20019;-39
2023/11/01 03:28:58;;;;;;;15.23;6.78;;;;;;;18.15;54.63;99273.59;5134456;27;20110;-39
2023/11/01 03:31:23;;;;;;;13.93;7.03;;;;;;;18.15;54.51;99270.91;5134239;27;20071;-40
2023/11/01 03:33:49;;;;;;;15.02;6.07;;;;;;;18.01;54.44;99264.41;5134516;27;20602;-40
2023/11/01 03:36:14;;;;;;;12.25;6.03;;;;;;;18.12;54.41;99270.63;5134166;27;20054;-41
2023/11/01 03:38:39;;;;;;;11.00;6.15;;;;;;;18.15;54.13;99248.56;5134295;27;20447;-40
2023/11/01 03:41:05;;;;;;;13.30;6.30;;;;;;;18.24;54.33;99246.13;5132807;27;20502;-41
2023/11/01 03:43:30;;;;;;;9.73;6.28;;;;;;;18.24;54.23;99257.75;5134339;27;20027;-40
2023/11/01 03:45:56;;;;;;;11.20;5.80;;;;;;;18.21;54.21;99252.06;5134302;27;20027;-40
2023/11/01 03:48:21;;;;;;;10.75;5.55;;;;;;;18.29;53.41;99260.44;5134300;27;20019;-40
2023/11/01 03:50:46;;;;;;;10.77;5.47;;;;;;;18.05;53.92;99259.28;5134084;27;20502;-40
2023/11/01 03:53:13;;;;;;;11.35;5.70;;;;;;;18.03;54.29;99264.13;5134252;27;20049;-40
2023/11/01 03:55:38;;;;;;;11.20;5.20;;;;;;;18.14;53.76;99269.31;5133989;27;20082;-39
2023/11/01 03:58:04;;;;;;;12.85;5.85;;;;;;;18.16;53.95;99272.53;5132702;27;20018;-40
2023/11/01 04:00:29;;;;;;;9.05;5.35;;;;;;;18.23;53.45;99268.78;5120099;27;20490;-40
2023/11/01 04:02:55;;;;;;;11.10;5.80;;;;;;;17.89;54.43;99271.88;5113600;27;20372;-39
2023/11/01 04:05:20;;;;;;;12.38;5.75;;;;;;;18.09;53.82;99281.94;5113331;28;20031;-39
2023/11/01 04:07:46;;;;;;;8.90;5.43;;;;;;;18.07;53.77;99284.88;5113520;28;20525;-40
2023/11/01 04:10:11;;;;;;;10.27;5.53;;;;;;;18.11;53.95;99279.78;5113391;28;20388;-41
2023/11/01 04:12:37;;;;;;;11.27;5.80;;;;;;;18.12;53.82;99292.97;5113344;28;20460;-38
2023/11/01 04:15:06;;;;;;;10.55;5.40;;;;;;;18.15;53.67;99297.03;5113209;28;20030;-40
2023/11/01 04:17:32;;;;;;;11.13;5.40;;;;;;;18.33;53.20;99304.63;5113295;28;20023;-40
2023/11/01 04:20:00;;;;;;;9.23;5.63;;;;;;;18.34;53.44;99300.06;5113034;28;20050;-40
2023/11/01 04:22:27;;;;;;;11.57;5.50;;;;;;;18.40;53.43;99300.88;5113284;28;20028;-40
2023/11/01 04:24:53;;;;;;;11.57;5.68;;;;;;;18.44;53.05;99296.56;5112911;28;20098;-39
2023/11/01 04:27:18;;;;;;;10.65;5.85;;;;;;;18.51;53.23;99306.00;5112952;28;20111;-39
2023/11/01 04:29:44;;;;;;;11.57;5.68;;;;;;;18.59;52.88;99304.69;5106602;28;20027;-38
2023/11/01 04:32:09;;;;;;;11.10;6.53;;;;;;;18.50;53.13;99306.28;5092940;28;20132;-39
2023/11/01 04:34:36;;;;;;;13.50;6.00;;;;;;;18.41;53.66;99310.56;5092892;28;20028;-40
2023/11/01 04:37:02;;;;;;;13.57;5.68;;;;;;;18.20;54.25;99313.22;5093000;28;20028;-40
2023/11/01 04:39:27;;;;;;;12.75;5.78;;;;;;;17.91;54.65;99321.69;5093051;28;20019;-39
2023/11/01 04:41:53;;;;;;;11.32;5.80;;;;;;;17.79;55.33;99310.31;5092950;28;20495;-40
2023/11/01 04:44:18;;;;;;;12.05;5.40;;;;;;;17.88;54.78;99319.53;5092953;28;20071;-37
2023/11/01 04:46:44;;;;;;;12.85;6.13;;;;;;;18.11;53.86;99312.09;5092904;28;20119;-38
2023/11/01 04:49:10;;;;;;;11.15;5.80;;;;;;;18.16;53.82;99317.47;5092937;28;20128;-40
2023/11/01 04:51:35;;;;;;;13.13;5.90;;;;;;;17.92;54.03;99323.31;5093146;28;20020;-40
2023/11/01 04:54:06;;;;;;;12.07;5.43;;;;;;;18.10;53.70;99329.31;5092519;28;20415;-40
2023/11/01 04:56:34;;;;;;;10.85;5.15;;;;;;;18.40;52.89;99325.91;5092594;28;20028;-40
2023/11/01 04:59:00;;;;;;;11.43;5.13;;;;;;;18.33;52.86;99326.19;5123424;27;20038;-40
2023/11/01 05:01:30;;;;;;;9.43;4.53;;;;;;;18.53;52.25;99330.00;5117514;27;20059;-40
2023/11/01 05:03:55;;;;;;;10.00;4.90;;;;;;;18.59;51.99;99334.31;5112151;28;20039;-42
2023/11/01 05:06:20;;;;;;;7.82;4.43;;;;;;;18.68;51.72;99334.63;5113211;28;20023;-41
2023/11/01 05:08:46;;;;;;;10.45;5.10;;;;;;;18.84;51.61;99336.28;5113164;28;20038;-40
2023/11/01 05:11:11;;;;;;;10.50;3.92;;;;;;;18.83;51.07;99347.31;5113158;28;20428;-40
2023/11/01 05:13:37;;;;;;;11.10;4.57;;;;;;;18.84;51.10;99346.25;5113258;28;20023;-39
2023/11/01 05:16:02;;;;;;;10.13;4.40;;;;;;;19.06;50.74;99325.25;5112277;28;20027;-41
2023/11/01 05:18:28;;;;;;;8.65;4.47;;;;;;;18.98;50.85;99333.84;5111896;28;20019;-41
2023/11/01 05:20:53;;;;;;;9.57;4.43;;;;;;;19.16;50.21;99339.81;5112115;28;20026;-41
2023/11/01 05:23:18;;;;;;;10.05;4.38;;;;;;;19.42;49.84;99343.28;5112645;28;20019;-40
2023/11/01 05:25:44;;;;;;;10.75;4.25;;;;;;;19.47;49.51;99343.28;5111246;28;20024;-37
2023/11/01 05:28:10;;;;;;;8.77;4.13;;;;;;;19.51;49.30;99345.19;5111628;28;20027;-39
2023/11/01 05:30:35;;;;;;;11.85;4.60;;;;;;;19.22;50.01;99354.91;5111670;28;20089;-41
2023/11/01 05:33:01;;;;;;;11.00;4.50;;;;;;;19.13;50.42;99363.56;5111564;28;20278;-41
2023/11/01 05:35:26;;;;;;;8.15;4.28;;;;;;;19.26;50.21;99356.78;5111584;28;20027;-41
2023/11/01 05:37:52;;;;;;;12.13;4.40;;;;;;;19.59;49.62;99362.72;5111441;28;20035;-41
2023/11/01 05:40:17;;;;;;;8.05;3.90;;;;;;;19.29;50.17;99372.44;5111349;28;20107;-40
2023/11/01 05:42:44;;;;;;;8.98;4.15;;;;;;;19.27;50.66;99385.41;5111858;28;20034;-41
2023/11/01 05:45:16;;;;;;;9.10;3.80;;;;;;;19.25;51.10;99384.06;5111906;28;20054;-41
2023/11/01 05:47:49;;;;;;;9.93;4.25;;;;;;;19.49;50.83;99387.81;5111842;28;20030;-41
2023/11/01 05:50:18;;;;;;;21.75;13.57;;;;;;;19.71;50.21;99384.81;5111860;28;20035;-40
2023/11/01 05:52:43;;;;;;;17.42;8.40;;;;;;;20.09;49.66;99376.41;5111774;28;20085;-41
2023/11/01 05:55:09;;;;;;;17.02;8.60;;;;;;;20.29;48.88;99383.59;5111608;28;20028;-40
2023/11/01 05:57:36;;;;;;;9.93;4.70;;;;;;;20.26;49.19;99378.78;5111892;28;20047;-39
2023/11/01 06:00:08;;;;;;;14.50;4.30;;;;;;;20.18;49.11;99377.44;5111773;28;20564;-40
2023/11/01 06:02:34;;;;;;;8.43;4.35;;;;;;;20.39;49.13;99377.34;5111904;28;20114;-42
2023/11/01 06:05:00;;;;;;;13.68;4.50;;;;;;;20.55;49.11;99384.31;5111827;28;20055;-40
2023/11/01 06:07:25;;;;;;;9.70;6.05;;;;;;;20.68;48.75;99386.44;5111821;28;20094;-40
2023/11/01 06:09:51;;;;;;;13.77;4.97;;;;;;;20.54;48.89;99387.28;5111591;28;20479;-41
2023/11/01 06:12:16;;;;;;;10.10;4.75;;;;;;;20.68;48.82;99386.44;5111677;28;20028;-40
2023/11/01 06:14:42;;;;;;;11.23;4.72;;;;;;;20.88;47.79;99387.38;5111627;28;20032;-39
2023/11/01 06:17:08;;;;;;;9.95;4.32;;;;;;;20.84;48.22;99379.03;5114371;28;20034;-39
2023/11/01 06:19:34;;;;;;;11.70;4.75;;;;;;;20.92;48.18;99382.22;5116009;28;20019;-39
2023/11/01 06:22:00;;;;;;;7.72;4.30;;;;;;;20.56;49.10;99379.69;5116032;28;20031;-40
2023/11/01 06:24:26;;;;;;;9.27;4.30;;;;;;;20.61;49.18;99368.91;5116003;28;20073;-40
2023/11/01 06:26:51;;;;;;;9.02;4.40;;;;;;;20.84;48.36;99365.50;5115706;28;20027;-39
2023/11/01 06:29:16;;;;;;;9.98;4.53;;;;;;;21.07;47.80;99380.22;5115453;28;20030;-40
2023/11/01 06:31:42;;;;;;;10.60;4.68;;;;;;;20.80;48.97;99374.47;5115704;28;20499;-40
2023/11/01 06:34:07;;;;;;;12.45;5.10;;;;;;;20.75;48.11;99371.78;5115906;28;20032;-39
2023/11/01 06:36:33;;;;;;;9.02;4.97;;;;;;;20.78;48.13;99374.75;5114321;28;20119;-41
2023/11/01 06:38:58;;;;;;;13.85;5.05;;;;;;;21.36;47.07;99386.78;5115901;27;20027;-41
2023/11/01 06:41:24;;;;;;;15.43;5.45;;;;;;;21.49;46.70;99383.44;5115652;28;20533;-41
2023/11/01 06:43:50;;;;;;;13.65;5.20;;;;;;;21.97;44.99;99386.25;5115682;28;20016;-41
2023/11/01 06:46:15;;;;;;;16.95;5.00;;;;;;;21.71;45.67;99382.97;5115451;28;20399;-41
2023/11/01 06:48:41;;;;;;;16.80;5.70;;;;;;;22.53;44.40;99397.53;5115800;28;20039;-41
2023/11/01 06:51:10;;;;;;;14.63;5.05;;;;;;;22.83;43.58;99404.44;5115470;28;20486;-40
2023/11/01 06:53:35;;;;;;;14.45;5.20;;;;;;;23.55;42.17;99406.88;5115561;28;20106;-41
2023/11/01 06:56:01;;;;;;;13.40;6.15;;;;;;;23.65;41.45;99410.53;5115116;28;20177;-42
2023/11/01 06:58:26;;;;;;;14.00;7.05;;;;;;;24.13;41.10;99404.78;5115106;28;20416;-40
2023/11/01 07:00:51;;;;;;;14.98;6.43;;;;;;;24.36;40.34;99414.63;5115038;28;20024;-40
2023/11/01 07:03:17;;;;;;;15.05;6.40;;;;;;;24.75;39.26;99412.50;5113795;28;20046;-42
2023/11/01 07:05:42;;;;;;;16.27;7.07;;;;;;;24.70;39.77;99407.97;5115020;28;20011;-39
2023/11/01 07:08:07;;;;;;;15.27;5.82;;;;;;;24.10;39.68;99411.59;5115251;28;20035;-40
2023/11/01 07:10:33;;;;;;;14.90;5.75;;;;;;;24.15;40.33;99413.44;5115057;28;20538;-39
2023/11/01 07:12:58;;;;;;;16.90;5.93;;;;;;;24.25;40.17;99417.88;5114726;28;20069;-41
2023/11/01 07:15:24;;;;;;;9.35;5.53;;;;;;;24.59;40.20;99409.31;5114600;28;20498;-44
2023/11/01 07:17:50;;;;;;;8.75;5.30;;;;;;;25.27;39.04;99409.44;5114919;28;20247;-40
2023/11/01 07:20:16;;;;;;;10.40;5.03;;;;;;;25.25;38.48;99409.75;5114433;28;20019;-40
2023/11/01 07:22:42;;;;;;;19.75;13.07;;;;;;;25.57;38.44;99402.44;5114826;28;20020;-42
2023/11/01 07:25:07;;;;;;;14.70;7.75;;;;;;;25.93;37.73;99396.06;5114298;28;20027;-40
2023/11/01 07:27:33;;;;;;;10.05;4.80;;;;;;;26.50;36.52;99403.47;5113936;28;20024;-41
2023/11/01 07:29:58;;;;;;;11.20;4.70;;;;;;;27.08;35.91;99401.47;5114523;28;20031;-42
2023/11/01 07:32:24;;;;;;;13.45;4.57;;;;;;;27.37;34.93;99400.81;5114157;28;20047;-40
2023/11/01 07:34:49;;;;;;;13.80;4.40;;;;;;;26.84;35.00;99399.19;5114037;28;20055;-40
2023/11/01 07:37:14;;;;;;;10.88;4.15;;;;;;;26.71;35.68;99404.50;5114325;28;20111;-41
2023/11/01 07:39:40;;;;;;;12.50;5.28;;;;;;;26.78;35.72;99405.94;5114191;28;20104;-40
2023/11/01 07:42:05;;;;;;;10.63;4.70;;;;;;;26.78;35.47;99409.47;5114681;28;20104;-43
2023/11/01 07:44:31;;;;;;;11.38;4.32;;;;;;;27.29;34.82;99416.09;5113955;28;20522;-40
2023/11/01 07:46:56;;;;;;;15.55;4.32;;;;;;;27.95;34.38;99417.75;5114483;28;20551;-43
2023/11/01 07:49:22;;;;;;;9.90;4.22;;;;;;;27.41;34.48;99422.81;5114321;28;20028;-42
2023/11/01 07:51:47;;;;;;;13.45;5.32;;;;;;;28.34;33.41;99417.72;5114558;28;20023;-41
2023/11/01 07:54:14;;;;;;;15.80;8.60;;;;;;;27.96;33.95;99424.81;5114170;28;20458;-39
2023/11/01 07:56:39;;;;;;;18.95;8.30;;;;;;;27.94;33.81;99427.06;5114274;28;20037;-39
2023/11/01 07:59:06;;;;;;;17.70;8.10;;;;;;;28.08;33.84;99429.56;5114410;28;20031;-46
2023/11/01 08:01:31;;;;;;;25.70;8.68;;;;;;;28.02;34.13;99428.97;5113866;28;20031;-41
2023/11/01 08:03:57;;;;;;;14.80;7.47;;;;;;;28.06;33.68;99431.84;5113716;28;20539;-42
2023/11/01 08:06:23;;;;;;;16.67;7.97;;;;;;;28.17;33.64;99437.75;5113825;28;20019;-41
2023/11/01 08:08:49;;;;;;;17.75;7.80;;;;;;;28.05;33.72;99439.25;5113756;28;20556;-42
2023/11/01 08:11:15;;;;;;;14.25;7.30;;;;;;;28.26;33.34;99444.00;5113577;28;20019;-40
2023/11/01 08:13:40;;;;;;;20.98;7.28;;;;;;;28.55;32.34;99426.81;5113944;28;20156;-43
2023/11/01 08:16:06;;;;;;;18.30;7.65;;;;;;;28.68;32.53;99433.16;5113902;27;20080;-41
2023/11/01 08:18:31;;;;;;;17.42;6.57;;;;;;;28.22;33.08;99424.69;5113644;28;20471;-45
2023/11/01 08:20:57;;;;;;;16.38;6.85;;;;;;;28.54;32.88;99427.94;5113852;27;20023;-40
2023/11/01 08:23:22;;;;;;;16.25;5.97;;;;;;;28.37;33.32;99425.25;5113604;28;20030;-41
2023/11/01 08:25:47;;;;;;;14.15;5.88;;;;;;;28.62;33.45;99429.81;5113385;28;20399;-43
2023/11/01 08:28:13;;;;;;;17.08;6.05;;;;;;;29.22;32.92;99422.28;5113759;28;20107;-42
2023/11/01 08:30:38;;;;;;;16.45;7.00;;;;;;;29.75;31.89;99433.56;5113261;28;20046;-43
2023/11/01 08:33:04;;;;;;;13.18;5.70;;;;;;;29.75;32.09;99430.81;5112014;28;20455;-41
2023/11/01 08:35:29;;;;;;;15.68;5.55;;;;;;;30.01;31.64;99425.03;5113165;28;20450;-46
2023/11/01 08:37:55;;;;;;;10.75;4.65;;;;;;;29.97;31.76;99429.63;5113272;28;20047;-43
2023/11/01 08:40:21;;;;;;;7.20;3.58;;;;;;;30.17;31.18;99438.09;5112388;28;20031;-43
2023/11/01 08:42:46;;;;;;;7.93;2.70;;;;;;;28.88;32.96;99434.31;5112910;27;20036;-43
2023/11/01 08:45:12;;;;;;;5.43;2.28;;;;;;;28.48;33.37;99434.69;5112994;28;20478;-44
2023/11/01 08:47:44;;;;;;;4.53;2.15;;;;;;;28.58;33.17;99434.34;5113258;27;20081;-40
2023/11/01 08:50:12;;;;;;;6.28;2.17;;;;;;;28.38;33.57;99440.56;5112808;28;20107;-42
2023/11/01 08:52:39;;;;;;;8.15;2.50;;;;;;;28.57;33.48;99437.41;5113205;28;20023;-43
2023/11/01 08:55:11;;;;;;;9.40;2.90;;;;;;;28.38;33.51;99438.63;5112683;28;20034;-43
2023/11/01 08:57:37;;;;;;;8.95;3.40;;;;;;;28.68;32.76;99435.91;5112742;28;20054;-41
2023/11/01 09:00:05;;;;;;;8.63;2.50;;;;;;;28.28;33.39;99441.72;5112743;28;20023;-42
2023/11/01 09:02:31;;;;;;;8.82;2.40;;;;;;;27.77;34.20;99440.75;5112605;28;20073;-41
2023/11/01 09:04:57;;;;;;;3.53;1.92;;;;;;;28.42;33.22;99436.81;5111754;28;20029;-41
2023/11/01 09:07:22;;;;;;;6.97;2.33;;;;;;;28.71;32.73;99435.25;5111964;28;20469;-41
2023/11/01 09:09:49;;;;;;;5.60;2.10;;;;;;;28.42;33.09;99423.13;5112712;28;20031;-43
2023/11/01 09:12:15;;;;;;;4.57;1.90;;;;;;;28.24;33.56;99432.59;5112613;28;20024;-42
2023/11/01 09:14:41;;;;;;;4.45;2.20;;;;;;;28.31;33.79;99419.19;5112541;28;20479;-45
2023/11/01 09:17:07;;;;;;;6.05;2.10;;;;;;;28.93;32.63;99439.59;5112594;28;20023;-43
2023/11/01 09:19:33;;;;;;;5.15;1.75;;;;;;;28.43;32.77;99424.75;5112452;28;20043;-40
2023/11/01 09:21:58;;;;;;;4.07;2.17;;;;;;;29.07;32.33;99428.34;5112663;28;20402;-44
2023/11/01 09:24:24;;;;;;;3.80;2.00;;;;;;;28.35;33.33;99427.53;5112431;27;20027;-43
2023/11/01 09:26:49;;;;;;;4.82;1.90;;;;;;;28.37;33.50;99422.53;5110948;28;20552;-43
2023/11/01 09:29:15;;;;;;;5.38;2.40;;;;;;;28.73;32.68;99423.94;5112232;28;20475;-46
2023/11/01 09:31:41;;;;;;;4.45;2.28;;;;;;;28.13;33.62;99423.13;5112288;28;20130;-41
2023/11/01 09:34:06;;;;;;;8.05;1.75;;;;;;;28.30;33.89;99425.78;5112617;28;20028;-41
2023/11/01 09:36:34;;;;;;;5.45;2.22;;;;;;;28.81;33.26;99421.16;5112160;28;20035;-43
2023/11/01 09:39:03;;;;;;;6.63;2.00;;;;;;;29.09;32.83;99420.59;5112037;28;20076;-41
2023/11/01 09:41:36;;;;;;;4.68;2.30;;;;;;;28.43;33.55;99413.81;5112466;28;20035;-43
2023/11/01 09:44:02;;;;;;;5.57;2.40;;;;;;;28.71;33.08;99421.56;5110311;28;20114;-41
2023/11/01 09:46:29;;;;;;;6.93;2.40;;;;;;;28.99;32.88;99410.84;5111902;28;20547;-41
2023/11/01 09:48:55;;;;;;;9.23;2.60;;;;;;;29.07;32.37;99417.41;5112044;28;20051;-44
2023/11/01 09:51:24;;;;;;;6.00;2.30;;;;;;;28.94;32.35;99408.34;5111861;28;20027;-41
2023/11/01 09:53:49;;;;;;;;;;;;;;;29.18;32.21;99406.88;5112685;28;20019;-43
2023/11/01 09:56:16;;;;;;;5.15;2.25;;;;;;;28.72;32.51;99401.25;5112142;28;19968;-43
2023/11/01 09:58:41;;;;;;;5.22;2.03;;;;;;;28.57;32.81;99401.84;5111927;28;20106;-41
2023/11/01 10:01:07;;;;;;;6.63;2.25;;;;;;;29.21;31.62;99393.31;5111932;28;20107;-43
2023/11/01 10:03:33;;;;;;;4.97;2.30;;;;;;;29.53;31.75;99396.38;5111918;28;20046;-42
2023/11/01 10:05:59;;;;;;;3.75;2.08;;;;;;;29.29;31.08;99382.59;5111341;28;20031;-43
2023/11/01 10:08:24;;;;;;;3.03;1.73;;;;;;;29.30;30.67;99387.75;5111992;28;20019;-42
2023/11/01 10:10:50;;;;;;;10.27;2.88;;;;;;;29.24;30.96;99384.44;5111472;28;20053;-41
2023/11/01 10:13:15;;;;;;;4.18;1.70;;;;;;;29.79;29.52;99374.16;5111881;28;20027;-41
2023/11/01 10:15:41;;;;;;;6.35;2.08;;;;;;;29.80;28.61;99369.50;5111511;28;20032;-41
2023/11/01 10:18:06;;;;;;;3.25;2.00;;;;;;;29.68;29.26;99366.69;5111595;28;20035;-41
2023/11/01 10:20:32;;;;;;;6.20;1.80;;;;;;;29.37;29.24;99373.50;5111018;28;20109;-39
2023/11/01 10:22:57;;;;;;;7.80;2.10;;;;;;;29.16;29.82;99368.06;5111671;28;20043;-41
2023/11/01 10:25:24;;;;;;;4.78;2.00;;;;;;;28.51;29.94;99351.16;5111485;28;20019;-41
2023/11/01 10:27:50;;;;;;;7.72;1.80;;;;;;;28.59;30.17;99369.47;5111700;28;20024;-43
2023/11/01 10:30:15;;;;;;;4.00;1.88;;;;;;;28.32;29.90;99368.00;5099602;28;20115;-41
2023/11/01 10:32:58;;;;;;;3.20;1.33;;;;;;;28.92;29.74;99365.97;5111359;28;20063;-40
2023/11/01 10:35:24;;;;;;;9.20;1.60;;;;;;;28.71;29.51;99361.34;5119332;28;20159;-39
2023/11/01 10:38:00;;;;;;;4.75;1.55;;;;;;;29.13;29.15;99355.84;5129150;27;20058;-39
2023/11/01 10:40:27;;;;;;;2.92;1.40;;;;;;;29.48;28.31;99362.91;5118407;28;20383;-40
2023/11/01 10:43:00;;;;;;;5.65;1.65;;;;;;;29.07;28.26;99346.19;5124179;27;20095;-42
2023/11/01 10:45:26;;;;;;;4.07;1.70;;;;;;;28.95;28.20;99357.09;5120623;28;20391;-41
2023/11/01 10:47:55;;;;;;;5.50;2.10;;;;;;;29.03;28.31;99348.00;5120379;28;20023;-42
2023/11/01 10:50:22;;;;;;;8.88;2.25;;;;;;;28.87;28.91;99347.84;5121873;27;20472;-41
2023/11/01 10:52:48;;;;;;;2.72;2.17;;;;;;;28.77;28.82;99343.56;5125675;28;20030;-42
2023/11/01 10:55:17;;;;;;;5.90;1.80;;;;;;;28.41;28.37;99339.47;5116290;28;20015;-42
2023/11/01 10:57:43;;;;;;;3.67;1.77;;;;;;;27.84;29.48;99337.19;5123170;28;20027;-40
2023/11/01 11:00:16;;;;;;;5.28;1.98;;;;;;;28.51;28.69;99351.16;5119960;28;20011;-43
2023/11/01 11:02:47;;;;;;;3.88;2.25;;;;;;;28.39;28.08;99343.69;5128620;27;20112;-41
2023/11/01 11:05:19;;;;;;;6.60;2.20;;;;;;;28.66;28.19;99334.94;5136411;27;20424;-42
2023/11/01 11:07:50;;;;;;;7.60;2.05;;;;;;;28.75;27.96;99334.91;5120284;27;20022;-42
2023/11/01 11:10:34;;;;;;;5.10;1.90;;;;;;;28.73;27.75;99326.22;5115600;28;20028;-42
2023/11/01 11:13:09;;;;;;;5.70;1.90;;;;;;;28.18;28.05;99332.69;5117481;27;20090;-29
2023/11/01 11:18:17;;;;;;;5.18;1.25;;;;;;;28.63;27.13;99321.94;5095268;28;20081;-28
2023/11/01 11:20:43;;;;;;;4.13;2.00;;;;;;;28.91;26.76;99326.06;5110273;27;20025;-27
2023/11/01 11:23:12;;;;;;;6.25;2.33;;;;;;;28.88;27.12;99318.50;5116289;27;20023;-29
2023/11/01 11:25:38;;;;;;;8.48;2.15;;;;;;;28.53;26.97;99307.88;5122925;27;20016;-28